James, Iowa
Current Conditions -  °F | °C
As of 11:52 PM on Thursday 30 Oct 2014 (Local Time) from KSUX Reporting Station
Overcast Overcast  
Wind Chill: 26°   Ceiling: 2800
Heat Index: 37°   Visibility: 10mi
Dew Point: 25°   Wind: 23mph
Humidity: 62%   Direction: 10°N
Pressure: 30.45"   Gusts: 35mph
Location:  42.5567°N, 96.3605°W
Report Text: KSUX 310452Z 01020G30KT 10SM OVC028 03/M04 A3045 RMK AO2 PK WND 01030/0449 SLP317 T00281039
Loading
Personal Weather Stations






























Interactive Weather Map
Tropical Storm Tracking
New forecast layout! Learn more

10-Day Weather Forecast

Advertisements
Track Severe Weather on mobile